Time;durP1;ratioP1;P1;durP2;ratioP2;P2;SDS_P1;SDS_P2;PMS_P1;PMS_P2;Temp;Humidity;BMP_temperature;BMP_pressure;BME280_temperature;BME280_humidity;BME280_pressure;Samples;Min_cycle;Max_cycle;Signal;HPM_P1;HPM_P2
2021/10/30 00:00:40;;;;;;;6.10;3.80;;;13.10;99.90;;;;;;5086438;28;20975;-78
2021/10/30 00:03:08;;;;;;;4.20;3.80;;;13.10;99.90;;;;;;5081534;28;20481;-79
2021/10/30 00:05:38;;;;;;;9.60;3.73;;;13.10;99.90;;;;;;5089634;28;20456;-79
2021/10/30 00:08:06;;;;;;;4.17;3.27;;;13.00;99.90;;;;;;5088875;28;20551;-80
2021/10/30 00:10:36;;;;;;;6.00;3.83;;;13.00;99.90;;;;;;5081203;28;20439;-78
2021/10/30 00:13:04;;;;;;;5.00;3.20;;;13.00;99.90;;;;;;5082838;28;20446;-78
2021/10/30 00:15:33;;;;;;;3.53;3.20;;;12.90;99.90;;;;;;5079168;28;20507;-80
2021/10/30 00:18:01;;;;;;;5.03;4.00;;;12.90;99.90;;;;;;5082548;28;20474;-80
2021/10/30 00:20:29;;;;;;;4.47;3.60;;;12.90;99.90;;;;;;5087225;28;20442;-80
2021/10/30 00:22:57;;;;;;;5.67;3.13;;;12.90;99.90;;;;;;5088106;28;20446;-78
2021/10/30 00:25:25;;;;;;;3.57;3.03;;;12.90;99.90;;;;;;5087503;28;20446;-78
2021/10/30 00:27:55;;;;;;;3.80;3.03;;;12.90;99.90;;;;;;5085446;28;20477;-79
2021/10/30 00:30:23;;;;;;;3.73;3.17;;;12.80;99.90;;;;;;5084260;28;20461;-79
2021/10/30 00:32:51;;;;;;;5.40;3.10;;;12.80;99.90;;;;;;5086473;28;21265;-78
2021/10/30 00:35:20;;;;;;;4.50;3.07;;;12.80;99.90;;;;;;5089511;28;20501;-78
2021/10/30 00:37:48;;;;;;;6.50;3.30;;;12.90;99.90;;;;;;5086062;28;20481;-78
2021/10/30 00:40:16;;;;;;;6.73;3.10;;;12.80;99.90;;;;;;5088251;28;20452;-78
2021/10/30 00:42:45;;;;;;;3.20;2.90;;;12.90;99.90;;;;;;5086501;28;20469;-79
2021/10/30 00:45:14;;;;;;;6.97;4.30;;;12.90;99.90;;;;;;5081717;28;20457;-79
2021/10/30 00:47:42;;;;;;;4.93;3.70;;;12.90;99.90;;;;;;5085375;28;20474;-79
2021/10/30 00:50:12;;;;;;;3.70;2.70;;;13.00;99.90;;;;;;5083035;28;20463;-78
2021/10/30 00:52:41;;;;;;;4.47;3.50;;;13.10;99.90;;;;;;5081045;28;20487;-79
2021/10/30 00:55:11;;;;;;;6.50;4.27;;;13.10;99.90;;;;;;5083492;28;20483;-79
2021/10/30 00:57:40;;;;;;;5.50;4.17;;;13.10;99.90;;;;;;5079546;28;20470;-79
2021/10/30 01:00:10;;;;;;;5.10;4.10;;;13.20;99.90;;;;;;5080031;28;20441;-80
2021/10/30 01:02:40;;;;;;;4.77;3.70;;;13.20;99.90;;;;;;5086259;28;20458;-79
2021/10/30 01:05:09;;;;;;;6.83;4.60;;;13.20;99.90;;;;;;5087284;28;20454;-79
2021/10/30 01:07:38;;;;;;;4.50;4.10;;;13.20;99.90;;;;;;5075996;28;20477;-79
2021/10/30 01:10:08;;;;;;;6.00;3.70;;;13.20;99.90;;;;;;5079934;28;20509;-79
2021/10/30 01:12:36;;;;;;;4.10;3.30;;;13.20;99.90;;;;;;5080787;28;20458;-79
2021/10/30 01:15:06;;;;;;;4.17;3.77;;;13.30;99.90;;;;;;5078988;28;20447;-79
2021/10/30 01:17:35;;;;;;;4.40;3.53;;;13.20;99.90;;;;;;5086083;28;20982;-79
2021/10/30 01:20:06;;;;;;;4.63;3.67;;;13.00;99.90;;;;;;5084280;28;20451;-78
2021/10/30 01:22:35;;;;;;;5.87;3.70;;;13.00;99.90;;;;;;5081364;28;20452;-79
2021/10/30 01:25:04;;;;;;;5.03;4.13;;;13.10;99.90;;;;;;5085404;28;20447;-79
2021/10/30 01:27:32;;;;;;;7.50;3.80;;;13.20;99.90;;;;;;5087995;28;20479;-79
2021/10/30 01:30:00;;;;;;;5.93;5.00;;;13.10;99.90;;;;;;5081871;28;20458;-79
2021/10/30 01:32:28;;;;;;;5.30;3.67;;;13.10;99.90;;;;;;5086047;28;20449;-78
2021/10/30 01:34:57;;;;;;;7.60;5.00;;;13.20;99.90;;;;;;5087660;28;20443;-78
2021/10/30 01:37:26;;;;;;;5.43;3.53;;;13.30;99.90;;;;;;5082961;28;21042;-79
2021/10/30 01:39:54;;;;;;;5.50;3.70;;;13.40;99.90;;;;;;5089525;28;20972;-78
2021/10/30 01:42:22;;;;;;;5.90;3.60;;;13.40;99.90;;;;;;5084683;28;20451;-79
2021/10/30 01:44:51;;;;;;;7.20;4.13;;;13.30;99.90;;;;;;5083440;28;20859;-79
2021/10/30 01:47:19;;;;;;;5.00;3.80;;;13.30;99.90;;;;;;5088760;28;20454;-78
2021/10/30 01:49:47;;;;;;;5.17;3.80;;;13.30;99.90;;;;;;5089312;28;20891;-79
2021/10/30 01:52:15;;;;;;;4.40;4.00;;;13.30;99.90;;;;;;5089479;28;20479;-79
2021/10/30 01:54:45;;;;;;;4.77;4.27;;;13.30;99.90;;;;;;5082094;28;20906;-79
2021/10/30 01:57:14;;;;;;;4.17;3.27;;;13.20;99.90;;;;;;5087852;28;20496;-79
2021/10/30 01:59:43;;;;;;;4.77;3.93;;;13.20;99.90;;;;;;5086747;28;20477;-78
2021/10/30 02:02:11;;;;;;;5.10;3.67;;;13.20;99.90;;;;;;5088089;28;20834;-79
2021/10/30 02:04:39;;;;;;;6.33;4.00;;;13.30;99.90;;;;;;5078418;28;20462;-79
2021/10/30 02:07:08;;;;;;;4.20;2.87;;;13.30;99.90;;;;;;5092591;28;20460;-78
2021/10/30 02:09:36;;;;;;;3.80;3.40;;;13.20;99.90;;;;;;5085056;28;20978;-78
2021/10/30 02:12:07;;;;;;;6.17;4.00;;;13.20;99.90;;;;;;5088112;28;20541;-78
2021/10/30 02:14:35;;;;;;;4.90;3.90;;;13.00;99.90;;;;;;5086343;28;20459;-80
2021/10/30 02:17:04;;;;;;;5.30;3.67;;;12.90;99.90;;;;;;5080451;28;20837;-79
2021/10/30 02:19:32;;;;;;;6.93;3.67;;;12.90;99.90;;;;;;5086493;28;20476;-80
2021/10/30 02:22:00;;;;;;;3.70;3.23;;;12.80;99.90;;;;;;5097061;28;20550;-81
2021/10/30 02:24:28;;;;;;;5.43;4.70;;;12.80;99.90;;;;;;5083809;28;20454;-80
2021/10/30 02:26:57;;;;;;;5.20;3.53;;;12.80;99.90;;;;;;5088347;28;20802;-80
2021/10/30 02:29:27;;;;;;;5.13;3.83;;;12.80;99.90;;;;;;5084408;28;20480;-80
2021/10/30 02:31:55;;;;;;;4.03;3.50;;;12.70;99.90;;;;;;5101390;28;20993;-80
2021/10/30 02:34:24;;;;;;;4.87;3.43;;;12.70;99.90;;;;;;5087788;28;20452;-79
2021/10/30 02:36:52;;;;;;;4.17;3.30;;;12.60;99.90;;;;;;5076703;28;20812;-79
2021/10/30 02:39:20;;;;;;;4.27;3.13;;;12.60;99.90;;;;;;5083594;28;20998;-79
2021/10/30 02:41:48;;;;;;;4.13;3.43;;;12.60;99.90;;;;;;5080101;28;20492;-79
2021/10/30 02:44:17;;;;;;;4.80;3.23;;;12.50;99.90;;;;;;5083998;28;20457;-79
2021/10/30 02:46:47;;;;;;;4.40;3.60;;;12.40;99.90;;;;;;5087200;28;20909;-80
2021/10/30 02:49:15;;;;;;;8.20;4.53;;;12.40;99.90;;;;;;5078031;28;20493;-79
2021/10/30 02:51:43;;;;;;;4.67;2.93;;;12.30;99.90;;;;;;5090033;28;20450;-79
2021/10/30 02:54:11;;;;;;;5.17;4.23;;;12.30;99.90;;;;;;5078195;28;20454;-79
2021/10/30 02:56:41;;;;;;;3.73;2.97;;;12.30;99.90;;;;;;5088500;28;20816;-79
2021/10/30 02:59:09;;;;;;;4.27;3.13;;;12.30;99.90;;;;;;5077990;28;20488;-78
2021/10/30 03:01:37;;;;;;;6.63;4.60;;;12.20;99.90;;;;;;5082032;28;20955;-78
2021/10/30 03:04:07;;;;;;;4.43;3.30;;;12.00;99.90;;;;;;5103410;28;20667;-78
2021/10/30 03:06:35;;;;;;;5.10;4.10;;;12.10;99.90;;;;;;5101613;28;20453;-78
2021/10/30 03:09:04;;;;;;;4.27;3.70;;;12.00;99.90;;;;;;5087914;28;20472;-78
2021/10/30 03:11:33;;;;;;;4.93;3.70;;;11.90;99.90;;;;;;5085803;28;20522;-79
2021/10/30 03:14:01;;;;;;;5.50;3.33;;;12.00;99.90;;;;;;5083470;28;20454;-79
2021/10/30 03:16:29;;;;;;;6.57;3.70;;;11.90;99.90;;;;;;5084633;28;20442;-79
2021/10/30 03:18:58;;;;;;;4.77;2.97;;;12.00;99.90;;;;;;5095545;28;20477;-79
2021/10/30 03:21:27;;;;;;;3.43;2.47;;;12.00;99.90;;;;;;5086592;28;20449;-78
2021/10/30 03:23:56;;;;;;;3.27;2.97;;;12.00;99.90;;;;;;5077796;28;20454;-79
2021/10/30 03:26:25;;;;;;;5.67;3.33;;;12.00;99.90;;;;;;5084768;28;20889;-79
2021/10/30 03:28:53;;;;;;;5.63;3.60;;;12.00;99.90;;;;;;5085006;28;20480;-79
2021/10/30 03:31:21;;;;;;;4.47;2.90;;;12.00;99.90;;;;;;5085339;28;20469;-79
2021/10/30 03:33:50;;;;;;;4.00;2.70;;;12.00;99.90;;;;;;5096779;28;20460;-79
2021/10/30 03:36:18;;;;;;;6.00;3.37;;;11.90;99.90;;;;;;5098360;28;20458;-79
2021/10/30 03:38:48;;;;;;;4.60;3.00;;;11.90;99.90;;;;;;5077433;28;20486;-79
2021/10/30 03:41:16;;;;;;;4.27;3.33;;;11.90;99.90;;;;;;5084790;28;21106;-79
2021/10/30 03:43:44;;;;;;;5.00;3.17;;;11.90;99.90;;;;;;5083731;28;21012;-78
2021/10/30 03:46:13;;;;;;;4.43;2.97;;;11.90;99.90;;;;;;5084232;28;20458;-78
2021/10/30 03:48:41;;;;;;;4.50;2.93;;;11.90;99.90;;;;;;5085284;28;20555;-78
2021/10/30 03:51:09;;;;;;;5.83;2.93;;;11.80;99.90;;;;;;5089268;28;20426;-78
2021/10/30 03:53:37;;;;;;;4.67;3.60;;;11.90;99.90;;;;;;5084273;28;20461;-80
2021/10/30 03:56:07;;;;;;;4.20;2.90;;;11.80;99.90;;;;;;5089521;28;20550;-80
2021/10/30 03:58:35;;;;;;;5.60;3.00;;;11.80;99.90;;;;;;5102696;27;20485;-79
2021/10/30 04:01:03;;;;;;;4.17;2.90;;;11.80;99.90;;;;;;5084039;28;20456;-79
2021/10/30 04:03:33;;;;;;;4.13;3.63;;;11.80;99.90;;;;;;5078653;28;20457;-79
2021/10/30 04:06:03;;;;;;;4.10;3.23;;;11.70;99.90;;;;;;5088055;28;20793;-79
2021/10/30 04:08:31;;;;;;;4.00;3.30;;;11.70;99.90;;;;;;5086685;28;20788;-79
2021/10/30 04:11:00;;;;;;;4.43;3.33;;;11.70;99.90;;;;;;5084894;28;20545;-78
2021/10/30 04:13:31;;;;;;;5.50;2.93;;;11.70;99.90;;;;;;5079963;28;20468;-78
2021/10/30 04:15:59;;;;;;;4.53;3.30;;;11.70;99.90;;;;;;5076773;28;20922;-79
2021/10/30 04:18:27;;;;;;;6.90;3.40;;;11.70;99.90;;;;;;5090908;28;20537;-79
2021/10/30 04:20:56;;;;;;;5.37;3.60;;;11.70;99.90;;;;;;5081939;28;20470;-80
2021/10/30 04:23:24;;;;;;;3.47;2.73;;;11.60;99.90;;;;;;5080485;28;20548;-79
2021/10/30 04:25:53;;;;;;;6.87;5.00;;;11.60;99.90;;;;;;5087208;28;20433;-79
2021/10/30 04:28:21;;;;;;;5.40;3.70;;;11.60;99.90;;;;;;5080546;28;20467;-79
2021/10/30 04:30:51;;;;;;;6.23;4.13;;;11.50;99.90;;;;;;5085240;28;20470;-80
2021/10/30 04:33:19;;;;;;;5.47;3.63;;;11.50;99.90;;;;;;5083231;28;20446;-79
2021/10/30 04:35:48;;;;;;;4.73;3.30;;;11.50;99.90;;;;;;5080407;28;20458;-79
2021/10/30 04:38:17;;;;;;;7.07;4.03;;;11.50;99.90;;;;;;5087830;28;20524;-79
2021/10/30 04:40:48;;;;;;;4.43;2.90;;;11.50;99.90;;;;;;5083508;28;20469;-79
2021/10/30 04:43:19;;;;;;;6.23;4.30;;;11.50;99.90;;;;;;5084815;28;20968;-80
2021/10/30 04:45:48;;;;;;;4.27;3.63;;;11.40;99.90;;;;;;5078974;28;20811;-79
2021/10/30 04:48:17;;;;;;;4.67;3.90;;;11.30;99.90;;;;;;5082160;28;20458;-79
2021/10/30 04:50:46;;;;;;;4.17;3.50;;;11.10;99.90;;;;;;5079622;28;20550;-78
2021/10/30 04:53:14;;;;;;;4.20;3.17;;;11.20;99.90;;;;;;5081179;28;20449;-81
2021/10/30 04:55:42;;;;;;;4.73;3.17;;;11.30;99.90;;;;;;5076563;28;20941;-79
2021/10/30 04:58:11;;;;;;;5.37;3.60;;;11.30;99.90;;;;;;5084498;28;21068;-80
2021/10/30 05:00:42;;;;;;;4.83;3.53;;;11.40;99.90;;;;;;5103699;28;20477;-79
2021/10/30 05:03:10;;;;;;;4.60;3.53;;;11.30;99.90;;;;;;5090861;28;20467;-80
2021/10/30 05:05:43;;;;;;;6.93;4.23;;;11.30;99.90;;;;;;5082718;28;20457;-80
2021/10/30 05:08:11;;;;;;;7.40;3.83;;;11.30;99.90;;;;;;5089952;28;20476;-79
2021/10/30 05:10:39;;;;;;;7.33;3.83;;;11.30;99.90;;;;;;5086931;28;20457;-79
2021/10/30 05:13:08;;;;;;;5.07;3.87;;;11.30;99.90;;;;;;5085582;28;20462;-79
2021/10/30 05:15:36;;;;;;;6.00;3.40;;;11.30;99.90;;;;;;5078276;28;20519;-80
2021/10/30 05:18:05;;;;;;;7.17;4.37;;;11.30;99.90;;;;;;5080587;28;20484;-81
2021/10/30 05:20:33;;;;;;;5.67;4.53;;;11.30;99.90;;;;;;5084580;28;20916;-81
2021/10/30 05:23:03;;;;;;;4.13;3.37;;;11.30;99.90;;;;;;5089666;28;20523;-80
2021/10/30 05:25:31;;;;;;;7.63;4.30;;;11.20;99.90;;;;;;5089858;28;20461;-80
2021/10/30 05:27:59;;;;;;;7.70;4.77;;;11.30;99.90;;;;;;5092771;28;20432;-80
2021/10/30 05:30:27;;;;;;;7.60;4.10;;;11.30;99.90;;;;;;5092088;28;20447;-80
2021/10/30 05:32:56;;;;;;;5.40;4.60;;;11.30;99.90;;;;;;5083551;28;20459;-79
2021/10/30 05:35:24;;;;;;;4.63;3.03;;;11.30;99.90;;;;;;5085641;28;20969;-81
2021/10/30 05:37:52;;;;;;;5.47;3.70;;;11.30;99.90;;;;;;5085714;28;20492;-81
2021/10/30 05:40:22;;;;;;;6.17;4.20;;;11.20;99.90;;;;;;5082331;28;20471;-80
2021/10/30 05:42:50;;;;;;;5.50;3.47;;;11.10;99.90;;;;;;5083165;28;20475;-80
2021/10/30 05:45:18;;;;;;;5.30;4.00;;;11.10;99.90;;;;;;5083102;28;20454;-81
2021/10/30 05:47:46;;;;;;;3.47;3.17;;;11.10;99.90;;;;;;5086351;28;20473;-80
2021/10/30 05:50:15;;;;;;;4.40;3.50;;;11.40;99.90;;;;;;5093341;28;20450;-81
2021/10/30 05:52:43;;;;;;;5.37;3.83;;;11.10;99.90;;;;;;5093164;28;20454;-80
2021/10/30 05:55:11;;;;;;;4.43;3.70;;;11.10;99.90;;;;;;5075308;28;20457;-80
2021/10/30 05:57:41;;;;;;;4.03;3.60;;;11.10;99.90;;;;;;5087485;28;20476;-80
2021/10/30 06:00:10;;;;;;;7.30;4.43;;;11.10;99.90;;;;;;5085587;28;20529;-79
2021/10/30 06:02:38;;;;;;;5.67;4.50;;;11.10;99.90;;;;;;5095222;28;20449;-79
2021/10/30 06:05:07;;;;;;;8.03;4.60;;;11.10;99.90;;;;;;5096484;28;20458;-79
2021/10/30 06:07:35;;;;;;;6.73;4.37;;;11.10;99.90;;;;;;5089323;28;20995;-78
2021/10/30 06:10:04;;;;;;;3.80;3.50;;;11.00;99.90;;;;;;5082121;28;20434;-78
2021/10/30 06:12:33;;;;;;;5.30;3.77;;;11.10;99.90;;;;;;5078354;28;20500;-80
2021/10/30 06:15:03;;;;;;;5.00;3.70;;;11.00;99.90;;;;;;5085321;28;20491;-79
2021/10/30 06:17:31;;;;;;;4.60;3.77;;;11.00;99.90;;;;;;5088979;28;20828;-78
2021/10/30 06:19:59;;;;;;;6.63;5.30;;;10.90;99.90;;;;;;5077768;28;20481;-79
2021/10/30 06:22:27;;;;;;;9.13;5.70;;;10.90;99.90;;;;;;5080238;28;20469;-79
2021/10/30 06:24:58;;;;;;;8.53;5.90;;;10.90;99.90;;;;;;5086019;28;20490;-79
2021/10/30 06:27:26;;;;;;;9.13;6.40;;;10.90;99.90;;;;;;5090819;28;20473;-79
2021/10/30 06:29:54;;;;;;;6.67;5.27;;;10.90;99.90;;;;;;5082613;28;20458;-78
2021/10/30 06:32:25;;;;;;;5.73;3.80;;;11.00;99.90;;;;;;5089218;28;20504;-80
2021/10/30 06:34:53;;;;;;;8.70;4.90;;;11.00;99.90;;;;;;5084411;28;20469;-80
2021/10/30 06:37:21;;;;;;;5.20;4.30;;;11.00;99.90;;;;;;5087014;28;20453;-78
2021/10/30 06:39:49;;;;;;;6.50;4.20;;;11.00;99.90;;;;;;5087145;28;20502;-78
2021/10/30 06:42:17;;;;;;;5.17;4.20;;;11.10;99.90;;;;;;5080332;28;20806;-77
2021/10/30 06:44:45;;;;;;;4.93;4.00;;;11.10;99.90;;;;;;5077121;28;20460;-77
2021/10/30 06:47:13;;;;;;;9.50;4.47;;;11.10;99.90;;;;;;5077192;28;21232;-77
2021/10/30 06:49:43;;;;;;;6.17;5.00;;;11.10;99.90;;;;;;5083654;28;20452;-70
2021/10/30 06:52:11;;;;;;;6.33;4.30;;;11.10;99.90;;;;;;5073520;28;20447;-77
2021/10/30 06:54:40;;;;;;;5.10;4.53;;;11.20;99.90;;;;;;5084504;28;20455;-77
2021/10/30 06:57:09;;;;;;;5.80;4.17;;;11.20;99.90;;;;;;5076994;28;20453;-77
2021/10/30 06:59:37;;;;;;;7.93;5.10;;;11.10;99.90;;;;;;5069292;28;20483;-77
2021/10/30 07:02:06;;;;;;;4.83;3.90;;;11.10;99.90;;;;;;5076145;28;20499;-76
2021/10/30 07:04:34;;;;;;;8.80;4.70;;;11.10;99.90;;;;;;5078105;28;20456;-77
2021/10/30 07:07:04;;;;;;;4.97;3.73;;;11.10;99.90;;;;;;5082394;28;20442;-77
2021/10/30 07:09:32;;;;;;;5.70;4.13;;;10.90;99.90;;;;;;5095715;28;20465;-77
2021/10/30 07:12:01;;;;;;;8.90;5.60;;;11.20;99.90;;;;;;5083894;28;20457;-75
2021/10/30 07:14:48;;;;;;;6.27;4.97;;;11.30;99.90;;;;;;5079960;28;20944;-77
2021/10/30 07:17:16;;;;;;;8.27;4.83;;;11.50;99.90;;;;;;5084498;28;20449;-77
2021/10/30 07:19:44;;;;;;;5.63;5.10;;;11.40;99.90;;;;;;5081023;28;20743;-78
2021/10/30 07:22:14;;;;;;;7.93;5.33;;;11.50;99.90;;;;;;5078157;28;20471;-77
2021/10/30 07:24:43;;;;;;;5.77;4.20;;;11.50;99.90;;;;;;5087441;28;20478;-76
2021/10/30 07:27:11;;;;;;;5.10;3.90;;;11.60;99.90;;;;;;5086984;28;20443;-77
2021/10/30 07:29:39;;;;;;;5.37;4.10;;;11.60;99.90;;;;;;5080403;28;21038;-77
2021/10/30 07:32:08;;;;;;;7.93;4.90;;;11.80;99.90;;;;;;5081901;28;20557;-77
2021/10/30 07:34:36;;;;;;;5.13;4.63;;;11.70;99.90;;;;;;5084196;28;20454;-76
2021/10/30 07:37:05;;;;;;;5.13;4.40;;;11.70;99.90;;;;;;5083292;28;20447;-78
2021/10/30 07:39:34;;;;;;;8.20;5.77;;;11.80;99.90;;;;;;5087689;28;20874;-76
2021/10/30 07:42:03;;;;;;;7.47;5.93;;;12.00;99.90;;;;;;5079614;28;20616;-76
2021/10/30 07:44:31;;;;;;;5.97;4.70;;;12.10;99.90;;;;;;5087635;28;20442;-76
2021/10/30 07:47:01;;;;;;;4.43;3.87;;;12.20;99.90;;;;;;5078525;28;20446;-76
2021/10/30 07:49:29;;;;;;;5.83;4.40;;;12.30;99.90;;;;;;5083722;28;20436;-77
2021/10/30 07:51:58;;;;;;;5.70;4.37;;;12.30;99.90;;;;;;5083026;28;20945;-77
2021/10/30 07:54:26;;;;;;;6.50;4.67;;;12.40;99.90;;;;;;5080951;28;21000;-77
2021/10/30 07:56:56;;;;;;;6.20;5.20;;;12.40;99.90;;;;;;5075856;28;20538;-77
2021/10/30 07:59:24;;;;;;;7.93;5.17;;;12.50;99.90;;;;;;5079144;28;20874;-78
2021/10/30 08:01:53;;;;;;;8.10;5.10;;;12.50;99.90;;;;;;5082536;28;20454;-76
2021/10/30 08:04:21;;;;;;;5.40;4.60;;;12.60;99.90;;;;;;5082352;28;20462;-76
2021/10/30 08:06:50;;;;;;;7.10;5.00;;;12.70;99.90;;;;;;5077440;28;20946;-76
2021/10/30 08:09:19;;;;;;;5.87;4.23;;;12.70;99.90;;;;;;5071502;28;20470;-76
2021/10/30 08:11:47;;;;;;;5.85;4.55;;;12.80;99.90;;;;;;5081737;28;20577;-77
2021/10/30 08:14:16;;;;;;;7.83;4.60;;;12.90;99.90;;;;;;5084526;28;20597;-77
2021/10/30 08:16:45;;;;;;;4.97;4.47;;;13.00;99.90;;;;;;5075921;28;20474;-77
2021/10/30 08:19:13;;;;;;;6.30;3.53;;;13.00;99.90;;;;;;5097810;28;21050;-77
2021/10/30 08:21:41;;;;;;;5.23;3.77;;;13.00;99.90;;;;;;5099317;28;20446;-78
2021/10/30 08:24:12;;;;;;;7.30;4.87;;;13.00;99.90;;;;;;5086312;28;20465;-79
2021/10/30 08:26:40;;;;;;;7.10;4.13;;;13.10;99.90;;;;;;5102559;28;20651;-79
2021/10/30 08:29:09;;;;;;;6.00;4.53;;;13.20;99.90;;;;;;5075050;28;20882;-80
2021/10/30 08:31:39;;;;;;;7.20;5.20;;;13.20;99.90;;;;;;5085785;28;20459;-78
2021/10/30 08:34:07;;;;;;;11.33;4.97;;;13.20;99.90;;;;;;5090371;28;20455;-73
2021/10/30 08:36:35;;;;;;;7.00;4.63;;;13.20;99.90;;;;;;5088331;28;20460;-74
2021/10/30 08:39:04;;;;;;;7.07;5.15;;;13.20;99.90;;;;;;5079339;28;20796;-75
2021/10/30 08:41:33;;;;;;;7.22;5.10;;;13.30;99.90;;;;;;5079720;28;21188;-78
2021/10/30 08:44:02;;;;;;;7.67;4.50;;;13.30;99.90;;;;;;5082552;28;20190;-78
2021/10/30 08:46:30;;;;;;;3.53;3.10;;;13.40;99.90;;;;;;5084802;28;20476;-78
2021/10/30 08:49:01;;;;;;;7.93;4.47;;;13.50;99.90;;;;;;5086468;28;20962;-78
2021/10/30 08:51:30;;;;;;;6.67;4.30;;;13.60;99.90;;;;;;5085022;28;20539;-78
2021/10/30 08:53:58;;;;;;;7.73;4.37;;;13.60;99.90;;;;;;5085998;28;20963;-78
2021/10/30 08:56:26;;;;;;;5.57;4.47;;;13.60;99.90;;;;;;5081689;28;20451;-78
2021/10/30 08:58:54;;;;;;;5.03;4.03;;;13.60;99.90;;;;;;5086081;28;20491;-78
2021/10/30 09:01:23;;;;;;;5.57;4.43;;;13.60;99.90;;;;;;5090766;28;20475;-78
2021/10/30 09:04:01;;;;;;;4.70;3.60;;;13.70;99.90;;;;;;5088625;28;20460;-78
2021/10/30 09:06:33;;;;;;;7.47;4.80;;;13.70;99.90;;;;;;5081182;28;20432;-79
2021/10/30 09:09:19;;;;;;;5.67;4.10;;;13.80;99.90;;;;;;5078575;28;20661;-80
2021/10/30 09:11:54;;;;;;;6.97;4.40;;;13.70;99.90;;;;;;5080157;28;20828;-82
2021/10/30 09:14:24;;;;;;;5.93;4.23;;;13.70;99.90;;;;;;5086149;28;20855;-78
2021/10/30 09:17:15;;;;;;;6.07;4.50;;;13.70;99.90;;;;;;5080988;28;21130;-78
2021/10/30 09:19:47;;;;;;;6.07;4.57;;;13.60;99.90;;;;;;5073076;28;20456;-78
2021/10/30 09:22:16;;;;;;;5.53;4.47;;;13.60;99.90;;;;;;5084733;28;20530;-80
2021/10/30 09:25:03;;;;;;;10.13;6.63;;;13.60;99.90;;;;;;5083730;28;20475;-82
2021/10/30 09:27:55;;;;;;;14.30;7.83;;;13.70;99.90;;;;;;5087226;28;20465;-80
2021/10/30 09:30:26;;;;;;;7.33;4.63;;;13.70;99.90;;;;;;5092156;28;20442;-80
2021/10/30 09:32:56;;;;;;;7.10;5.00;;;13.60;99.90;;;;;;5083723;28;20460;-81
2021/10/30 09:35:31;;;;;;;15.63;7.93;;;13.70;99.90;;;;;;5084856;28;20454;-81
2021/10/30 09:38:00;;;;;;;8.07;5.10;;;13.70;99.90;;;;;;5083803;28;20470;-82
2021/10/30 09:40:30;;;;;;;6.90;4.83;;;13.80;99.90;;;;;;5088211;28;20547;-79
2021/10/30 09:43:12;;;;;;;10.17;4.97;;;13.80;99.90;;;;;;5082580;28;20452;-79
2021/10/30 09:45:43;;;;;;;6.80;4.83;;;13.80;99.90;;;;;;5093879;28;20434;-79
2021/10/30 09:48:11;;;;;;;4.23;3.70;;;13.80;99.90;;;;;;5105859;27;20546;-79
2021/10/30 09:50:41;;;;;;;6.83;4.43;;;13.80;99.90;;;;;;5096295;28;20448;-80
2021/10/30 09:53:40;;;;;;;6.17;4.70;;;13.90;99.90;;;;;;5099787;28;20477;-79
2021/10/30 09:56:10;;;;;;;7.30;4.63;;;13.90;99.90;;;;;;5033682;28;20550;-79
2021/10/30 09:58:39;;;;;;;3.67;2.70;;;13.90;99.90;;;;;;5079716;28;20482;-79
2021/10/30 10:01:11;;;;;;;4.60;2.67;;;13.90;99.90;;;;;;5098115;27;21121;-78
2021/10/30 10:03:41;;;;;;;5.17;2.87;;;13.90;99.90;;;;;;5076893;28;20456;-78
2021/10/30 10:06:14;;;;;;;3.23;2.93;;;13.90;99.90;;;;;;5082834;28;20448;-79
2021/10/30 10:08:44;;;;;;;3.93;3.03;;;13.90;99.90;;;;;;5088247;28;20537;-80
2021/10/30 10:11:14;;;;;;;3.90;2.50;;;13.90;99.90;;;;;;5086680;28;20466;-80
2021/10/30 10:13:44;;;;;;;5.13;3.17;;;13.90;99.90;;;;;;5090410;28;20458;-80
2021/10/30 10:16:13;;;;;;;2.70;2.17;;;14.00;99.90;;;;;;5087589;28;20451;-80
2021/10/30 10:18:42;;;;;;;3.20;2.13;;;14.00;99.90;;;;;;5090502;28;20473;-79
2021/10/30 10:21:14;;;;;;;3.53;2.47;;;14.00;99.90;;;;;;5089675;28;20519;-80
2021/10/30 10:23:44;;;;;;;3.30;2.63;;;14.10;99.90;;;;;;5090835;28;20456;-80
2021/10/30 10:26:13;;;;;;;3.43;2.07;;;14.00;99.90;;;;;;5087976;28;20870;-79
2021/10/30 10:28:43;;;;;;;4.93;2.43;;;14.10;99.90;;;;;;5090859;28;20498;-81
2021/10/30 10:31:16;;;;;;;1.97;1.70;;;14.10;99.90;;;;;;5075483;28;20450;-80
2021/10/30 10:33:44;;;;;;;5.10;1.80;;;14.10;99.90;;;;;;5093294;28;20451;-80
2021/10/30 10:36:25;;;;;;;5.00;2.60;;;14.20;99.90;;;;;;5089577;28;20459;-79
2021/10/30 10:39:14;;;;;;;2.47;2.10;;;14.20;99.90;;;;;;5083238;28;20855;-80
2021/10/30 10:41:59;;;;;;;3.70;2.60;;;14.20;99.90;;;;;;5069407;28;20948;-79
2021/10/30 10:45:02;;;;;;;3.23;1.90;;;14.20;99.90;;;;;;5070661;28;20514;-79
2021/10/30 10:47:55;;;;;;;3.17;2.83;;;14.30;99.90;;;;;;5086936;28;20501;-79
2021/10/30 10:50:31;;;;;;;3.10;2.27;;;14.30;99.90;;;;;;5077728;28;20455;-79
2021/10/30 10:53:18;;;;;;;4.20;3.30;;;14.30;99.90;;;;;;5082711;28;20439;-78
2021/10/30 10:56:13;;;;;;;4.10;3.60;;;14.30;99.90;;;;;;5082242;28;20559;-80
2021/10/30 10:59:10;;;;;;;6.43;3.50;;;14.30;99.90;;;;;;5077456;28;20819;-80
2021/10/30 11:02:05;;;;;;;5.73;4.90;;;14.30;99.90;;;;;;5076435;28;20574;-79
2021/10/30 11:04:33;;;;;;;6.90;3.87;;;14.30;99.90;;;;;;5072211;28;20856;-79
2021/10/30 11:07:18;;;;;;;6.37;4.03;;;14.40;99.90;;;;;;5086334;28;20458;-80
2021/10/30 11:09:54;;;;;;;4.13;3.57;;;14.30;99.90;;;;;;5096784;28;20807;-80
2021/10/30 11:12:24;;;;;;;4.30;3.53;;;14.40;99.90;;;;;;5088168;28;20480;-79
2021/10/30 11:15:06;;;;;;;5.07;3.73;;;14.40;99.90;;;;;;5092892;28;20580;-80
2021/10/30 11:17:43;;;;;;;4.90;3.93;;;14.30;99.90;;;;;;5088636;28;20477;-79
2021/10/30 11:20:13;;;;;;;4.57;3.90;;;14.30;99.90;;;;;;5094696;28;20455;-79
2021/10/30 11:22:59;;;;;;;5.57;3.83;;;14.40;99.90;;;;;;5086502;28;20477;-80
2021/10/30 11:25:29;;;;;;;5.03;3.13;;;14.40;99.90;;;;;;5091215;28;20456;-79
2021/10/30 11:27:59;;;;;;;7.93;3.73;;;14.40;99.90;;;;;;5077469;28;20472;-79
2021/10/30 11:30:35;;;;;;;6.90;5.13;;;14.40;99.90;;;;;;5080202;28;20479;-80
2021/10/30 11:33:24;;;;;;;6.57;4.77;;;14.40;99.90;;;;;;5084069;28;20854;-79
2021/10/30 11:35:58;;;;;;;6.10;4.83;;;14.40;99.90;;;;;;5094125;28;20471;-77
2021/10/30 11:38:29;;;;;;;3.43;3.10;;;14.40;99.90;;;;;;5082859;28;20507;-77
2021/10/30 11:40:59;;;;;;;5.57;3.40;;;14.40;99.90;;;;;;5077487;28;20448;-77
2021/10/30 11:43:29;;;;;;;3.50;3.20;;;14.30;99.90;;;;;;5079298;28;20459;-78
2021/10/30 11:46:01;;;;;;;4.17;3.00;;;14.30;99.90;;;;;;5084745;28;20449;-77
2021/10/30 11:48:37;;;;;;;2.93;2.73;;;14.30;99.90;;;;;;5083432;28;20537;-78
2021/10/30 11:51:06;;;;;;;4.20;3.80;;;14.30;99.90;;;;;;5080035;28;20447;-77
2021/10/30 11:53:36;;;;;;;3.10;2.80;;;14.40;99.90;;;;;;5070999;28;20459;-78
2021/10/30 11:56:09;;;;;;;5.73;3.97;;;14.40;99.90;;;;;;5088893;28;20452;-78
2021/10/30 11:58:40;;;;;;;5.10;4.53;;;14.40;99.90;;;;;;5076403;28;20477;-78
2021/10/30 12:01:23;;;;;;;6.33;4.80;;;14.40;99.90;;;;;;5085434;28;20450;-79
2021/10/30 12:03:53;;;;;;;5.83;3.50;;;14.20;99.90;;;;;;5083704;28;20493;-79
2021/10/30 12:06:44;;;;;;;3.67;2.83;;;14.10;99.90;;;;;;5090005;28;20576;-79
2021/10/30 12:09:18;;;;;;;7.60;3.80;;;14.00;99.90;;;;;;5083643;28;20483;-78
2021/10/30 12:11:48;;;;;;;7.17;4.37;;;13.80;99.90;;;;;;5081450;28;21174;-79
2021/10/30 12:14:24;;;;;;;5.13;4.20;;;13.80;99.90;;;;;;5087853;28;20462;-78
2021/10/30 12:16:54;;;;;;;4.03;3.20;;;13.90;99.90;;;;;;5085852;28;20457;-79
2021/10/30 12:19:26;;;;;;;6.83;4.47;;;13.90;99.90;;;;;;5083408;28;20478;-78
2021/10/30 12:22:08;;;;;;;6.50;4.07;;;13.80;99.90;;;;;;5084116;28;21019;-79
2021/10/30 12:24:38;;;;;;;7.20;5.10;;;13.80;99.90;;;;;;5082547;28;20447;-78
2021/10/30 12:27:09;;;;;;;6.03;4.43;;;13.70;99.90;;;;;;5080120;28;20873;-77
2021/10/30 12:29:42;;;;;;;7.37;4.30;;;13.90;99.90;;;;;;5085256;28;20468;-79
2021/10/30 12:32:13;;;;;;;6.43;4.67;;;13.90;99.90;;;;;;5077666;28;20513;-78
2021/10/30 12:34:56;;;;;;;5.87;3.83;;;14.00;99.90;;;;;;5082798;28;20522;-79
2021/10/30 12:37:27;;;;;;;6.50;4.03;;;14.00;99.90;;;;;;5075441;28;20461;-79
2021/10/30 12:39:59;;;;;;;8.23;5.80;;;14.10;99.90;;;;;;5082923;28;20497;-79
2021/10/30 12:42:29;;;;;;;7.97;4.80;;;14.10;99.90;;;;;;5075593;28;20488;-78
2021/10/30 12:44:57;;;;;;;5.97;4.67;;;14.10;99.90;;;;;;5078524;28;20505;-79
2021/10/30 12:47:27;;;;;;;6.00;4.83;;;14.10;99.90;;;;;;5079854;28;20912;-78
2021/10/30 12:49:57;;;;;;;4.77;3.70;;;14.10;99.90;;;;;;5078045;28;20451;-79
2021/10/30 12:52:41;;;;;;;4.47;3.37;;;14.20;99.90;;;;;;5085442;28;20443;-78
2021/10/30 12:55:14;;;;;;;5.43;4.70;;;14.20;99.90;;;;;;5073631;28;20457;-79
2021/10/30 12:57:56;;;;;;;7.60;4.93;;;14.20;99.90;;;;;;5078082;28;20478;-78
2021/10/30 13:00:25;;;;;;;7.47;5.33;;;14.10;99.90;;;;;;5081714;28;20467;-79
2021/10/30 13:02:53;;;;;;;6.07;4.63;;;14.10;99.90;;;;;;5076876;28;20478;-78